Time;durP1;ratioP1;P1;durP2;ratioP2;P2;SDS_P1;SDS_P2;PMS_P1;PMS_P2;Temp;Humidity;BMP_temperature;BMP_pressure;BME280_temperature;BME280_humidity;BME280_pressure;Samples;Min_cycle;Max_cycle;Signal;HPM_P1;HPM_P2
2022/04/13 00:00:38;;;;;;;7.97;5.20;;;;;;;13.94;78.17;97814.63;4139351;28;21109;-85
2022/04/13 00:02:41;;;;;;;6.80;5.63;;;;;;;13.93;77.83;97812.97;4139760;28;20633;-84
2022/04/13 00:04:45;;;;;;;6.60;5.17;;;;;;;13.93;77.49;97814.75;4157173;28;20629;-85
2022/04/13 00:06:48;;;;;;;6.33;5.27;;;;;;;13.93;78.00;97810.34;4156789;28;20633;-84
2022/04/13 00:08:55;;;;;;;6.67;5.60;;;;;;;13.94;77.83;97808.56;4140844;28;21040;-85
2022/04/13 00:11:00;;;;;;;6.30;5.07;;;;;;;13.92;78.51;97811.31;4137869;28;20684;-84
2022/04/13 00:13:04;;;;;;;6.17;5.43;;;;;;;13.92;78.91;97805.22;4124312;28;20651;-84
2022/04/13 00:15:10;;;;;;;6.80;5.07;;;;;;;13.90;77.70;97812.41;4158851;28;20680;-85
2022/04/13 00:17:15;;;;;;;6.03;5.10;;;;;;;13.88;77.72;97809.09;4124757;28;20702;-84
2022/04/13 00:19:20;;;;;;;8.67;5.10;;;;;;;13.87;78.89;97808.25;4124813;28;20700;-85
2022/04/13 00:21:24;;;;;;;6.10;5.00;;;;;;;13.87;78.56;97810.88;4141675;28;20733;-85
2022/04/13 00:23:30;;;;;;;8.23;5.10;;;;;;;13.85;77.93;97812.81;4138588;28;20647;-84
2022/04/13 00:25:41;;;;;;;6.40;5.17;;;;;;;13.85;78.33;97811.97;4156384;28;20641;-85
2022/04/13 00:27:44;;;;;;;7.53;5.63;;;;;;;13.83;78.66;97804.25;4140755;28;20976;-84
2022/04/13 00:29:48;;;;;;;6.93;5.10;;;;;;;13.80;78.14;97801.88;4138198;28;20646;-84
2022/04/13 00:31:52;;;;;;;6.23;4.93;;;;;;;13.80;77.97;97809.75;4161160;28;20636;-84
2022/04/13 00:33:57;;;;;;;7.33;5.07;;;;;;;13.77;78.25;97804.78;4123260;28;21827;-84
2022/04/13 00:36:00;;;;;;;8.97;5.57;;;;;;;13.77;78.20;97801.31;4152130;28;20633;-85
2022/04/13 00:38:04;;;;;;;5.80;5.20;;;;;;;13.75;79.57;97811.09;4143792;28;20640;-84
2022/04/13 00:40:08;;;;;;;7.20;5.63;;;;;;;13.74;78.38;97809.44;4140766;28;20733;-84
2022/04/13 00:42:12;;;;;;;6.83;4.53;;;;;;;13.72;78.38;97804.31;4141014;28;20640;-84
2022/04/13 00:44:16;;;;;;;5.30;4.63;;;;;;;13.70;78.78;97806.25;4158950;28;21240;-85
2022/04/13 00:46:21;;;;;;;6.63;5.30;;;;;;;13.69;78.45;97801.13;4121586;28;20690;-84
2022/04/13 00:48:29;;;;;;;6.73;5.50;;;;;;;13.68;79.61;97802.94;4141687;28;20642;-85
2022/04/13 00:50:34;;;;;;;6.30;4.90;;;;;;;13.70;78.83;97810.66;4160466;28;21298;-84
2022/04/13 00:52:41;;;;;;;6.10;5.07;;;;;;;13.66;79.65;97804.84;4143938;28;20721;-84
2022/04/13 00:54:48;;;;;;;7.10;5.60;;;;;;;13.67;79.48;97806.50;4152964;28;20714;-84
2022/04/13 00:56:53;;;;;;;6.03;5.43;;;;;;;13.65;78.86;97811.06;4155922;28;20720;-85
2022/04/13 00:59:01;;;;;;;5.77;5.27;;;;;;;13.64;78.93;97805.94;4139471;28;20650;-84
2022/04/13 01:01:05;;;;;;;6.07;5.33;;;;;;;13.64;78.59;97818.22;4141842;28;20641;-84
2022/04/13 01:03:12;;;;;;;7.20;5.20;;;;;;;13.64;78.27;97815.59;4141082;28;20646;-84
2022/04/13 01:05:16;;;;;;;6.33;4.90;;;;;;;13.63;78.80;97819.19;4152866;28;20713;-84
2022/04/13 01:07:21;;;;;;;6.43;5.03;;;;;;;13.63;78.93;97819.19;4123271;28;20621;-84
2022/04/13 01:09:27;;;;;;;7.27;5.10;;;;;;;13.62;79.63;97818.34;4144599;28;20617;-84
2022/04/13 01:11:31;;;;;;;7.97;5.50;;;;;;;13.59;78.40;97818.63;4141276;28;20643;-84
2022/04/13 01:13:38;;;;;;;6.07;5.13;;;;;;;13.60;79.15;97822.06;4138350;28;21041;-85
2022/04/13 01:15:43;;;;;;;7.03;5.20;;;;;;;13.60;78.68;97822.06;4156729;28;20625;-84
2022/04/13 01:17:48;;;;;;;7.50;5.37;;;;;;;13.59;79.84;97820.38;4144698;28;21014;-85
2022/04/13 01:19:51;;;;;;;6.13;4.67;;;;;;;13.60;78.06;97817.63;4140217;28;20638;-84
2022/04/13 01:21:58;;;;;;;8.43;5.80;;;;;;;13.60;77.99;97825.50;4156966;28;20623;-84
2022/04/13 01:24:04;;;;;;;6.50;5.20;;;;;;;13.57;79.44;97822.31;4143874;28;20653;-84
2022/04/13 01:26:11;;;;;;;5.93;5.10;;;;;;;13.56;78.97;97818.03;4138876;28;21476;-85
2022/04/13 01:28:14;;;;;;;5.60;5.00;;;;;;;13.55;78.29;97811.16;4156594;28;22961;-84
2022/04/13 01:30:17;;;;;;;7.53;5.33;;;;;;;13.53;79.47;97820.91;4146594;28;20755;-84
2022/04/13 01:32:23;;;;;;;7.40;5.27;;;;;;;13.50;78.24;97818.53;4155917;28;20672;-84
2022/04/13 01:34:27;;;;;;;6.60;5.10;;;;;;;13.45;79.23;97810.25;4156875;28;21836;-84
2022/04/13 01:36:33;;;;;;;7.77;4.70;;;;;;;13.44;78.57;97812.03;4140056;28;20642;-84
2022/04/13 01:38:38;;;;;;;6.63;5.30;;;;;;;13.43;79.62;97812.16;4141849;28;20678;-84
2022/04/13 01:40:44;;;;;;;6.07;4.90;;;;;;;13.43;79.14;97812.16;4156626;28;20644;-84
2022/04/13 01:42:49;;;;;;;7.50;5.57;;;;;;;13.40;79.30;97822.91;4154587;28;20675;-84
2022/04/13 01:44:52;;;;;;;8.70;5.90;;;;;;;13.37;79.30;97812.69;4142971;28;20768;-84
2022/04/13 01:46:55;;;;;;;7.60;5.67;;;;;;;13.36;78.24;97822.31;4153800;28;21042;-85
2022/04/13 01:48:58;;;;;;;7.47;5.97;;;;;;;13.36;78.50;97824.13;4143077;28;20862;-84
2022/04/13 01:51:01;;;;;;;7.17;5.73;;;;;;;13.32;79.49;97831.41;4148176;28;20640;-84
2022/04/13 01:53:05;;;;;;;8.87;5.50;;;;;;;13.31;79.27;97828.91;4158573;28;20645;-84
2022/04/13 01:55:10;;;;;;;6.33;5.73;;;;;;;13.26;79.43;97837.16;4140520;28;21221;-84
2022/04/13 01:57:15;;;;;;;7.80;5.83;;;;;;;13.22;78.96;97832.28;4141671;28;21294;-84
2022/04/13 01:59:18;;;;;;;7.40;5.90;;;;;;;13.18;79.73;97838.72;4141423;28;20676;-85
2022/04/13 02:01:21;;;;;;;9.07;6.10;;;;;;;13.14;79.58;97834.72;4140134;28;20637;-84
2022/04/13 02:03:26;;;;;;;6.27;5.67;;;;;;;13.07;80.42;97841.41;4156511;28;20642;-84
2022/04/13 02:05:29;;;;;;;6.70;5.50;;;;;;;13.04;80.50;97852.13;4135981;28;20633;-84
2022/04/13 02:07:33;;;;;;;6.80;5.50;;;;;;;13.02;79.02;97851.44;4142131;28;20638;-84
2022/04/13 02:09:36;;;;;;;7.20;6.10;;;;;;;12.99;80.73;97849.06;4152937;28;22503;-85
2022/04/13 02:11:42;;;;;;;6.80;6.00;;;;;;;12.96;80.68;97844.09;4136999;28;20648;-84
2022/04/13 02:13:47;;;;;;;8.30;5.60;;;;;;;12.94;79.64;97856.44;4140338;28;21239;-84
2022/04/13 02:15:50;;;;;;;7.40;5.47;;;;;;;12.89;80.95;97853.38;4142233;28;20996;-84
2022/04/13 02:17:54;;;;;;;6.03;5.33;;;;;;;12.87;79.66;97843.97;4153184;28;20667;-85
2022/04/13 02:19:57;;;;;;;9.30;5.47;;;;;;;12.86;79.95;97852.81;4156411;28;20645;-85
2022/04/13 02:22:01;;;;;;;9.13;5.87;;;;;;;12.82;80.73;97852.25;4145129;28;20684;-85
2022/04/13 02:24:05;;;;;;;7.00;5.17;;;;;;;12.80;79.39;97855.88;4155326;28;20644;-84
2022/04/13 02:26:08;;;;;;;6.43;4.67;;;;;;;12.79;79.52;97849.84;4162020;28;21611;-84
2022/04/13 02:28:11;;;;;;;6.20;5.37;;;;;;;12.75;80.39;97851.03;4141371;28;20668;-84
2022/04/13 02:30:16;;;;;;;5.20;4.70;;;;;;;12.74;81.64;97849.34;4141531;28;20637;-84
2022/04/13 02:32:20;;;;;;;8.40;5.73;;;;;;;12.71;81.65;97854.84;4129810;28;21079;-84
2022/04/13 02:34:23;;;;;;;6.73;6.07;;;;;;;12.70;79.77;97847.97;4150208;28;20675;-84
2022/04/13 02:36:26;;;;;;;6.43;5.83;;;;;;;12.67;80.98;97851.75;4140869;28;20750;-84
2022/04/13 02:38:30;;;;;;;8.50;5.97;;;;;;;12.66;81.07;97860.56;4151182;28;20645;-85
2022/04/13 02:40:33;;;;;;;6.20;5.60;;;;;;;12.62;81.51;97852.13;4141269;28;20953;-84
2022/04/13 02:42:37;;;;;;;6.87;5.83;;;;;;;12.60;81.00;97858.44;4152868;28;21039;-84
2022/04/13 02:44:40;;;;;;;6.00;5.40;;;;;;;12.57;81.30;97858.69;4156188;28;20648;-84
2022/04/13 02:46:45;;;;;;;7.40;5.30;;;;;;;12.58;81.25;97863.78;4141142;28;20647;-84
2022/04/13 02:48:49;;;;;;;6.37;5.60;;;;;;;12.54;81.52;97857.16;4142015;28;20646;-84
2022/04/13 02:50:52;;;;;;;7.30;6.40;;;;;;;12.54;80.30;97861.53;4155000;28;20643;-84
2022/04/13 02:52:56;;;;;;;7.50;5.73;;;;;;;12.51;80.90;97859.16;4140784;28;20633;-85
2022/04/13 02:55:00;;;;;;;5.30;4.80;;;;;;;12.50;81.20;97865.38;4145729;28;20628;-84
2022/04/13 02:57:04;;;;;;;5.47;4.97;;;;;;;12.45;81.08;97865.72;4157479;28;20621;-84
2022/04/13 02:59:07;;;;;;;7.97;5.53;;;;;;;12.45;82.16;97862.28;4126484;28;20669;-84
2022/04/13 03:01:10;;;;;;;8.77;6.30;;;;;;;12.44;80.28;97864.06;4136972;28;20745;-84
2022/04/13 03:03:16;;;;;;;7.90;5.67;;;;;;;12.42;79.95;97870.38;4141479;28;20679;-84
2022/04/13 03:05:19;;;;;;;9.40;6.20;;;;;;;12.41;80.54;97866.91;4157674;28;20634;-84
2022/04/13 03:07:29;;;;;;;8.87;5.97;;;;;;;12.38;79.98;97864.53;4140403;28;20724;-84
2022/04/13 03:09:33;;;;;;;6.43;5.57;;;;;;;12.37;80.26;97864.66;4142339;28;20701;-85
2022/04/13 03:11:37;;;;;;;7.57;5.60;;;;;;;12.35;81.41;97863.97;4143849;28;20650;-84
2022/04/13 03:13:41;;;;;;;8.23;5.73;;;;;;;12.33;80.55;97863.25;4142552;28;21443;-84
2022/04/13 03:15:44;;;;;;;7.30;6.10;;;;;;;12.34;81.62;97867.53;4158014;28;20649;-84
2022/04/13 03:17:47;;;;;;;9.60;6.40;;;;;;;12.32;80.39;97869.44;4156317;28;20696;-84
2022/04/13 03:19:52;;;;;;;7.87;6.17;;;;;;;12.31;81.35;97875.59;4137916;28;21302;-84
2022/04/13 03:21:56;;;;;;;6.67;5.40;;;;;;;12.30;80.85;97879.19;4138829;28;20678;-84
2022/04/13 03:23:59;;;;;;;7.60;5.83;;;;;;;12.27;80.31;97880.25;4149320;28;20639;-84
2022/04/13 03:26:03;;;;;;;7.97;6.00;;;;;;;12.23;81.31;97871.94;4148169;28;20646;-84
2022/04/13 03:28:06;;;;;;;11.80;6.03;;;;;;;12.18;81.53;97866.22;4150649;28;21738;-84
2022/04/13 03:30:13;;;;;;;7.30;5.60;;;;;;;12.14;81.94;97868.25;4144480;28;20643;-84
2022/04/13 03:32:16;;;;;;;6.60;5.90;;;;;;;12.07;80.90;97854.03;4156656;28;21059;-84
2022/04/13 03:34:22;;;;;;;5.60;5.10;;;;;;;12.01;81.53;97853.66;4137876;28;20659;-84
2022/04/13 03:36:27;;;;;;;6.10;5.50;;;;;;;11.96;81.42;97861.03;4130558;28;20632;-84
2022/04/13 03:38:30;;;;;;;6.50;5.73;;;;;;;11.91;81.58;97860.56;4155304;28;20674;-84
2022/04/13 03:40:33;;;;;;;7.17;5.83;;;;;;;11.90;80.57;97851.03;4141870;28;20635;-84
2022/04/13 03:42:38;;;;;;;8.30;5.90;;;;;;;11.87;81.58;97865.16;4139307;28;20639;-84
2022/04/13 03:44:41;;;;;;;7.03;5.87;;;;;;;11.84;80.38;97857.56;4140558;28;20644;-84
2022/04/13 03:46:44;;;;;;;7.00;5.67;;;;;;;11.82;80.60;97856.84;4137564;28;20642;-84
2022/04/13 03:48:48;;;;;;;9.30;5.67;;;;;;;11.82;82.46;97851.63;4140001;28;21890;-84
2022/04/13 03:50:55;;;;;;;7.47;6.03;;;;;;;11.81;81.03;97855.19;4159735;28;20671;-84
2022/04/13 03:53:00;;;;;;;6.10;5.50;;;;;;;11.79;82.47;97851.88;4137490;28;20628;-84
2022/04/13 03:55:06;;;;;;;6.90;6.20;;;;;;;11.79;82.86;97849.25;4142944;28;21404;-84
2022/04/13 03:57:09;;;;;;;6.63;5.70;;;;;;;11.78;83.33;97854.59;4161768;28;20637;-84
2022/04/13 03:59:13;;;;;;;6.63;6.03;;;;;;;11.78;83.44;97854.59;4140949;28;20669;-84
2022/04/13 04:01:16;;;;;;;6.40;5.80;;;;;;;11.79;83.49;97864.09;4143845;28;20643;-84
2022/04/13 04:03:20;;;;;;;9.37;5.83;;;;;;;11.76;81.76;97862.53;4144721;28;20634;-84
2022/04/13 04:05:23;;;;;;;10.20;5.93;;;;;;;11.73;82.29;97859.34;4144668;28;20662;-84
2022/04/13 04:07:27;;;;;;;8.77;6.03;;;;;;;11.71;83.16;97857.78;4123073;28;21223;-84
2022/04/13 04:09:34;;;;;;;9.83;5.77;;;;;;;11.66;82.62;97859.94;4155057;28;20640;-84
2022/04/13 04:11:37;;;;;;;6.17;5.30;;;;;;;11.62;82.71;97867.19;4152959;28;20699;-85
2022/04/13 04:13:40;;;;;;;8.30;6.13;;;;;;;11.59;82.51;97859.56;4139358;28;21291;-84
2022/04/13 04:15:44;;;;;;;8.80;5.93;;;;;;;11.57;82.93;97874.50;4159663;28;20646;-84
2022/04/13 04:17:47;;;;;;;9.00;6.03;;;;;;;11.54;82.47;97864.28;4138626;28;20643;-84
2022/04/13 04:19:50;;;;;;;7.73;5.50;;;;;;;11.53;82.62;97874.84;4144674;28;20748;-84
2022/04/13 04:21:54;;;;;;;6.00;5.40;;;;;;;11.49;82.65;97871.66;4139121;28;21493;-84
2022/04/13 04:23:57;;;;;;;8.80;5.57;;;;;;;11.48;82.67;97867.38;4140554;28;20634;-84
2022/04/13 04:26:02;;;;;;;7.93;6.70;;;;;;;11.47;83.61;97883.16;4135933;28;20627;-84
2022/04/13 04:28:09;;;;;;;7.87;5.67;;;;;;;11.46;83.46;97873.66;4141682;28;20633;-84
2022/04/13 04:30:13;;;;;;;7.57;5.93;;;;;;;11.44;82.88;97880.75;4152949;28;21182;-84
2022/04/13 04:32:16;;;;;;;7.80;6.00;;;;;;;11.41;83.50;97878.34;4140405;28;20735;-83
2022/04/13 04:34:21;;;;;;;6.17;5.43;;;;;;;11.40;82.55;97882.75;4145575;28;20686;-84
2022/04/13 04:36:28;;;;;;;7.87;5.43;;;;;;;11.37;82.73;97885.59;4139732;28;20625;-84
2022/04/13 04:38:32;;;;;;;7.13;5.17;;;;;;;11.35;82.65;97882.28;4139483;28;20645;-84
2022/04/13 04:40:35;;;;;;;8.20;5.60;;;;;;;11.35;82.34;97887.50;4142889;28;20712;-84
2022/04/13 04:42:47;;;;;;;8.20;5.80;;;;;;;11.30;83.26;97887.00;4125951;28;20635;-84
2022/04/13 04:44:55;;;;;;;6.10;5.50;;;;;;;11.29;82.96;97887.13;4161187;28;20965;-84
2022/04/13 04:46:58;;;;;;;7.53;6.07;;;;;;;11.26;82.60;97892.59;4141023;28;20640;-84
2022/04/13 04:49:02;;;;;;;8.10;5.30;;;;;;;11.25;82.50;97892.69;4157693;28;20995;-84
2022/04/13 04:51:05;;;;;;;7.87;6.40;;;;;;;11.25;82.92;97892.69;4154424;28;20643;-84
2022/04/13 04:53:09;;;;;;;7.80;6.40;;;;;;;11.22;83.00;97890.31;4126504;28;20671;-84
2022/04/13 04:55:17;;;;;;;10.80;6.10;;;;;;;11.23;84.13;97898.03;4155564;28;20692;-84
2022/04/13 04:57:21;;;;;;;15.23;7.10;;;;;;;11.26;83.66;97896.94;4145513;28;21251;-84
2022/04/13 04:59:26;;;;;;;10.67;6.07;;;;;;;11.26;83.04;97892.59;4157799;28;20715;-84
2022/04/13 05:01:29;;;;;;;11.63;6.17;;;;;;;11.26;82.92;97892.59;4141836;28;20636;-84
2022/04/13 05:03:33;;;;;;;8.33;5.93;;;;;;;11.30;83.19;97896.59;4138640;28;20732;-84
2022/04/13 05:05:39;;;;;;;7.53;5.50;;;;;;;11.31;83.39;97900.91;4148211;28;20995;-84
2022/04/13 05:07:43;;;;;;;8.37;6.10;;;;;;;11.31;84.20;97896.50;4143868;28;20633;-84
2022/04/13 05:09:46;;;;;;;9.67;6.40;;;;;;;11.31;83.88;97906.13;4151100;28;21299;-84
2022/04/13 05:11:50;;;;;;;9.30;6.87;;;;;;;11.31;83.73;97898.28;4150834;28;20634;-84
2022/04/13 05:13:53;;;;;;;7.10;5.17;;;;;;;11.34;83.70;97895.44;4137357;28;20646;-84
2022/04/13 05:15:58;;;;;;;10.43;6.10;;;;;;;11.42;82.51;97898.31;4153882;28;20962;-84
2022/04/13 05:18:02;;;;;;;8.10;6.27;;;;;;;11.47;82.64;97897.06;4141589;28;21118;-84
2022/04/13 05:20:07;;;;;;;15.33;6.37;;;;;;;11.53;83.78;97901.81;4156161;28;20667;-84
2022/04/13 05:22:10;;;;;;;9.17;7.10;;;;;;;11.57;83.18;97889.34;4139732;28;20626;-84
2022/04/13 05:24:14;;;;;;;7.70;6.63;;;;;;;11.64;83.29;97895.78;4140408;28;20736;-84
2022/04/13 05:26:18;;;;;;;9.17;7.07;;;;;;;11.68;82.93;97889.38;4143202;28;21245;-84
2022/04/13 05:28:22;;;;;;;9.53;7.20;;;;;;;11.73;82.25;97897.69;4157582;28;20662;-84
2022/04/13 05:30:25;;;;;;;10.73;8.27;;;;;;;11.78;83.13;97897.22;4133568;28;20676;-84
2022/04/13 05:32:30;;;;;;;9.03;7.40;;;;;;;11.85;82.29;97906.28;4155611;28;20720;-84
2022/04/13 05:34:34;;;;;;;9.00;7.70;;;;;;;11.92;81.07;97904.00;4142881;28;21311;-84
2022/04/13 05:36:37;;;;;;;11.10;7.03;;;;;;;11.98;82.11;97912.22;4141693;28;20683;-84
2022/04/13 05:38:40;;;;;;;8.17;6.57;;;;;;;12.07;81.84;97906.31;4162249;28;20661;-84
2022/04/13 05:40:44;;;;;;;11.27;6.40;;;;;;;12.15;81.33;97916.13;4158607;28;20711;-84
2022/04/13 05:42:48;;;;;;;7.43;6.50;;;;;;;12.25;82.31;97899.63;4147697;28;20643;-84
2022/04/13 05:44:53;;;;;;;8.70;5.87;;;;;;;12.36;81.23;97907.47;4141715;28;20635;-84
2022/04/13 05:46:57;;;;;;;6.37;5.47;;;;;;;12.47;81.02;97915.31;4156004;28;20666;-84
2022/04/13 05:49:02;;;;;;;8.00;6.13;;;;;;;12.59;81.73;97919.56;4148108;28;20643;-84
2022/04/13 05:51:05;;;;;;;6.97;5.77;;;;;;;12.71;80.29;97917.63;4148077;28;21173;-84
2022/04/13 05:53:09;;;;;;;7.83;5.90;;;;;;;12.83;80.42;97927.16;4146110;28;20640;-84
2022/04/13 05:55:13;;;;;;;7.47;5.40;;;;;;;12.95;80.02;97931.41;4140597;28;20706;-84
2022/04/13 05:57:16;;;;;;;8.53;5.83;;;;;;;13.07;78.79;97932.22;4137913;28;20773;-84
2022/04/13 05:59:19;;;;;;;9.87;5.93;;;;;;;13.19;77.76;97934.69;4122010;28;21463;-85
2022/04/13 06:01:23;;;;;;;9.77;5.50;;;;;;;13.30;77.62;97942.50;4139531;28;21119;-83
2022/04/13 06:03:26;;;;;;;6.87;5.50;;;;;;;13.40;77.79;97943.41;4136313;28;20692;-88
2022/04/13 06:05:46;;;;;;;9.33;5.93;;;;;;;13.54;77.37;97945.72;4152399;28;20688;-86
2022/04/13 06:07:50;;;;;;;6.30;5.67;;;;;;;13.64;76.33;97946.66;4153976;28;20632;-86
2022/04/13 06:09:53;;;;;;;8.17;5.73;;;;;;;13.77;77.20;97941.09;4141299;28;20632;-86
2022/04/13 06:11:57;;;;;;;11.43;6.40;;;;;;;13.87;76.55;97947.19;4154744;28;21574;-86
2022/04/13 06:14:00;;;;;;;7.90;6.40;;;;;;;13.97;76.61;97945.47;4141768;28;20635;-89
2022/04/13 06:16:04;;;;;;;9.43;6.17;;;;;;;14.03;75.67;97947.59;4137505;28;20627;-87
2022/04/13 06:18:07;;;;;;;7.93;5.97;;;;;;;14.10;74.73;97948.75;4139379;28;21094;-85
2022/04/13 06:20:14;;;;;;;9.27;6.60;;;;;;;14.21;75.36;97949.50;4143169;28;20655;-86
2022/04/13 06:22:19;;;;;;;8.20;6.50;;;;;;;14.40;76.17;97954.03;4161981;28;20635;-86
2022/04/13 06:24:22;;;;;;;9.67;5.67;;;;;;;14.54;74.49;97946.63;4149010;28;20626;-89
2022/04/13 06:26:25;;;;;;;7.47;6.07;;;;;;;14.70;74.47;97958.31;4138879;28;20641;-88
2022/04/13 06:28:30;;;;;;;10.90;6.10;;;;;;;14.84;74.07;97960.56;4156847;28;20720;-86
2022/04/13 06:30:33;;;;;;;13.50;6.70;;;;;;;14.95;73.84;97957.81;4165654;28;20632;-87
2022/04/13 06:32:38;;;;;;;9.20;7.30;;;;;;;15.09;72.24;97962.66;4144107;28;20667;-87
2022/04/13 06:34:42;;;;;;;8.00;6.83;;;;;;;15.18;71.65;97967.16;4152013;28;20690;-87
2022/04/13 06:36:45;;;;;;;9.80;7.20;;;;;;;15.27;71.47;97968.97;4167273;28;21012;-87
2022/04/13 06:38:50;;;;;;;10.03;7.10;;;;;;;15.41;72.87;97966.78;4161545;28;20638;-87
2022/04/13 06:40:55;;;;;;;10.30;6.40;;;;;;;15.53;71.50;97967.47;4162812;28;20661;-87
2022/04/13 06:42:58;;;;;;;9.27;6.77;;;;;;;15.61;70.43;97976.31;4142040;28;20700;-87
2022/04/13 06:45:02;;;;;;;17.53;8.20;;;;;;;15.72;71.78;97971.75;4145455;28;20676;-89
2022/04/13 06:47:06;;;;;;;9.43;7.33;;;;;;;15.79;69.64;97975.50;4161253;28;20655;-89
2022/04/13 06:49:09;;;;;;;9.03;6.80;;;;;;;15.83;69.22;97979.50;4148830;28;20638;-89
2022/04/13 06:51:12;;;;;;;7.93;7.07;;;;;;;15.96;69.96;97987.94;4146291;28;21221;-89
2022/04/13 06:53:17;;;;;;;12.80;7.20;;;;;;;16.14;69.37;97980.97;4141503;28;21236;-88
2022/04/13 06:55:22;;;;;;;7.53;6.33;;;;;;;16.31;70.69;97986.38;4155798;28;20640;-87
2022/04/13 06:57:25;;;;;;;8.00;6.30;;;;;;;16.38;68.18;97986.63;4146609;28;20661;-85
2022/04/13 06:59:35;;;;;;;8.17;6.07;;;;;;;16.49;68.59;97989.09;4153463;28;20645;-85
2022/04/13 07:01:39;;;;;;;7.37;5.73;;;;;;;16.63;69.31;97985.03;4141229;28;20754;-85
2022/04/13 07:03:45;;;;;;;6.70;5.80;;;;;;;16.72;68.10;97981.53;4160168;28;20638;-85
2022/04/13 07:05:49;;;;;;;6.40;5.20;;;;;;;16.81;68.14;97985.06;4136422;28;20627;-85
2022/04/13 07:07:53;;;;;;;7.30;5.60;;;;;;;16.95;68.01;97995.97;4124496;28;20697;-85
2022/04/13 07:09:56;;;;;;;9.03;5.63;;;;;;;17.09;67.20;97995.50;4140844;28;21172;-86
2022/04/13 07:12:01;;;;;;;9.50;7.20;;;;;;;17.31;69.32;98000.41;4160848;28;20628;-85
2022/04/13 07:14:04;;;;;;;9.17;7.17;;;;;;;17.54;70.96;97998.00;4153176;28;21591;-85
2022/04/13 07:16:07;;;;;;;8.23;6.60;;;;;;;17.74;70.47;97996.91;4153396;28;20634;-86
2022/04/13 07:18:11;;;;;;;8.60;6.67;;;;;;;17.88;68.08;98001.63;4150604;28;20642;-85
2022/04/13 07:20:15;;;;;;;7.50;5.70;;;;;;;18.03;66.99;97994.84;4160010;28;20732;-85
2022/04/13 07:22:18;;;;;;;11.23;5.90;;;;;;;18.11;65.71;98002.81;4153929;28;20757;-85
2022/04/13 07:24:21;;;;;;;7.47;5.97;;;;;;;18.27;67.02;97998.53;4141066;28;20678;-85
2022/04/13 07:26:25;;;;;;;9.33;7.00;;;;;;;18.47;69.38;98003.44;4144367;28;20716;-86
2022/04/13 07:28:30;;;;;;;7.60;5.37;;;;;;;18.67;66.90;98002.28;4161986;28;20660;-85
2022/04/13 07:30:35;;;;;;;8.53;7.07;;;;;;;18.90;70.26;98004.19;4157170;28;21005;-85
2022/04/13 07:32:38;;;;;;;8.50;6.43;;;;;;;19.08;69.11;98002.34;4159222;28;20737;-85
2022/04/13 07:34:41;;;;;;;9.97;6.20;;;;;;;19.25;67.36;98003.22;4161354;28;20687;-85
2022/04/13 07:36:45;;;;;;;9.10;6.60;;;;;;;19.43;67.36;98010.06;4142167;28;21031;-85
2022/04/13 07:38:50;;;;;;;8.40;5.30;;;;;;;19.57;65.53;98015.53;4144605;28;20642;-85
2022/04/13 07:40:53;;;;;;;6.40;4.90;;;;;;;19.64;64.15;98013.09;4147547;28;20787;-86
2022/04/13 07:42:56;;;;;;;9.43;5.40;;;;;;;19.73;63.72;98007.66;4144837;28;20689;-86
2022/04/13 07:45:03;;;;;;;8.10;5.57;;;;;;;19.81;64.37;98012.94;4161075;28;20982;-85
2022/04/13 07:47:06;;;;;;;8.43;4.87;;;;;;;19.92;62.37;98021.44;4156319;28;20733;-85
2022/04/13 07:49:10;;;;;;;7.67;4.67;;;;;;;19.98;61.09;98022.59;4144336;28;20642;-86
2022/04/13 07:51:14;;;;;;;5.20;4.50;;;;;;;20.00;60.77;98023.28;4143849;28;20688;-85
2022/04/13 07:53:17;;;;;;;5.77;4.70;;;;;;;20.06;60.41;98025.25;4143997;28;20634;-85
2022/04/13 07:55:20;;;;;;;5.97;5.10;;;;;;;20.16;59.63;98033.84;4148349;28;20644;-86
2022/04/13 07:57:24;;;;;;;5.10;4.33;;;;;;;20.25;59.60;98031.06;4140684;28;20801;-85
2022/04/13 07:59:27;;;;;;;6.10;4.93;;;;;;;20.32;61.05;98040.81;4144984;28;20688;-85
2022/04/13 08:01:32;;;;;;;7.07;4.90;;;;;;;20.40;60.98;98035.53;4144052;28;20803;-85
2022/04/13 08:03:36;;;;;;;9.03;4.83;;;;;;;20.56;61.45;98032.84;4134855;28;20650;-86
2022/04/13 08:05:40;;;;;;;7.10;4.97;;;;;;;20.64;61.75;98027.56;4143102;28;20642;-86
2022/04/13 08:07:43;;;;;;;6.10;4.40;;;;;;;20.80;60.84;98027.53;4143637;28;21228;-85
2022/04/13 08:09:46;;;;;;;5.50;4.40;;;;;;;20.87;60.35;98028.53;4143461;28;20656;-85
2022/04/13 08:11:52;;;;;;;7.00;4.50;;;;;;;20.97;60.37;98029.16;4162226;28;20629;-85
2022/04/13 08:13:56;;;;;;;6.43;4.50;;;;;;;21.18;62.35;98032.06;4160252;28;20643;-85
2022/04/13 08:15:59;;;;;;;6.03;4.50;;;;;;;21.30;60.76;98028.88;4138940;28;21185;-85
2022/04/13 08:18:05;;;;;;;7.60;5.07;;;;;;;21.43;60.51;98029.97;4150335;28;20629;-85
2022/04/13 08:20:11;;;;;;;6.40;4.77;;;;;;;21.61;60.83;98032.41;4137698;28;20672;-85
2022/04/13 08:22:17;;;;;;;7.30;4.90;;;;;;;21.76;60.94;98037.63;4136837;28;20663;-85
2022/04/13 08:24:20;;;;;;;7.27;5.40;;;;;;;21.93;60.22;98039.16;4140238;28;20930;-85
2022/04/13 08:26:24;;;;;;;6.30;5.60;;;;;;;22.10;59.63;98034.56;4140848;28;20638;-84
2022/04/13 08:28:28;;;;;;;6.30;4.93;;;;;;;22.18;58.77;98038.00;4138367;28;20627;-86
2022/04/13 08:30:31;;;;;;;9.47;6.00;;;;;;;22.34;58.05;98045.88;4154548;28;21556;-86
2022/04/13 08:32:36;;;;;;;6.57;5.17;;;;;;;22.49;58.67;98041.44;4151258;28;20632;-86
2022/04/13 08:34:41;;;;;;;9.43;5.53;;;;;;;22.60;57.05;98039.19;4161264;28;20656;-86
2022/04/13 08:36:44;;;;;;;7.27;5.17;;;;;;;22.68;58.10;98036.44;4136650;28;20631;-86
2022/04/13 08:38:47;;;;;;;6.17;4.93;;;;;;;22.78;57.58;98045.00;4161395;28;20630;-86
2022/04/13 08:40:57;;;;;;;8.53;5.10;;;;;;;22.77;57.74;98041.50;4123117;28;20643;-86
2022/04/13 08:43:08;;;;;;;7.97;5.13;;;;;;;22.85;58.71;98045.91;4160567;28;21036;-87
2022/04/13 08:45:19;;;;;;;7.20;4.80;;;;;;;22.92;56.80;98047.66;4132462;28;20622;-86
2022/04/13 08:47:24;;;;;;;7.50;5.77;;;;;;;23.08;56.63;98049.34;4143809;28;20645;-87
2022/04/13 08:49:28;;;;;;;8.27;5.60;;;;;;;23.14;57.07;98037.97;4140914;28;20759;-86
2022/04/13 08:51:35;;;;;;;6.33;4.10;;;;;;;23.15;56.70;98045.78;4147483;28;20637;-86
2022/04/13 08:53:41;;;;;;;7.00;4.87;;;;;;;23.20;58.11;98040.75;4138157;28;20704;-87
2022/04/13 08:55:48;;;;;;;7.37;5.10;;;;;;;23.22;58.65;98042.19;4162303;28;20655;-86
2022/04/13 08:57:58;;;;;;;5.80;4.53;;;;;;;23.19;57.08;98035.59;4138585;28;20658;-86
2022/04/13 09:00:08;;;;;;;7.30;4.27;;;;;;;23.27;57.80;98038.97;4146048;28;20728;-86
2022/04/13 09:02:22;;;;;;;8.80;5.30;;;;;;;23.34;56.27;98042.56;4142548;28;21080;-86
2022/04/13 09:04:28;;;;;;;6.30;4.67;;;;;;;23.42;58.76;98043.28;4156684;28;20699;-86
2022/04/13 09:06:35;;;;;;;7.00;4.70;;;;;;;23.40;58.81;98045.31;4151002;28;20633;-86
2022/04/13 09:08:49;;;;;;;6.40;4.73;;;;;;;23.43;57.21;98036.13;4165730;28;21309;-86
2022/04/13 09:10:53;;;;;;;5.50;4.63;;;;;;;23.50;57.46;98039.69;4141278;28;20634;-86
2022/04/13 09:12:57;;;;;;;5.73;4.40;;;;;;;23.61;57.17;98041.91;4130780;28;20669;-86
2022/04/13 09:15:02;;;;;;;7.40;4.57;;;;;;;23.67;59.57;98041.19;4132987;28;20630;-86
2022/04/13 09:17:06;;;;;;;11.13;4.80;;;;;;;23.78;57.65;98044.16;4149555;28;20888;-86
2022/04/13 09:19:10;;;;;;;5.67;3.97;;;;;;;23.88;57.84;98040.19;4147978;28;20638;-86
2022/04/13 09:21:13;;;;;;;7.63;4.20;;;;;;;23.90;56.67;98037.34;4137335;28;20638;-86
2022/04/13 09:23:17;;;;;;;6.00;4.00;;;;;;;23.91;56.01;98036.34;4147149;28;20658;-86
2022/04/13 09:25:23;;;;;;;6.20;3.90;;;;;;;23.95;56.10;98043.78;4147535;28;20641;-86
2022/04/13 09:27:26;;;;;;;6.53;4.13;;;;;;;23.90;55.59;98043.50;4160475;28;21195;-86
2022/04/13 09:29:30;;;;;;;6.07;4.87;;;;;;;23.95;56.10;98041.09;4145065;28;20633;-86
2022/04/13 09:31:34;;;;;;;7.10;4.30;;;;;;;24.09;56.67;98037.56;4161647;28;20638;-86
2022/04/13 09:33:37;;;;;;;7.47;4.10;;;;;;;24.17;57.83;98038.25;4139789;28;20783;-86
2022/04/13 09:35:41;;;;;;;8.00;4.77;;;;;;;24.26;58.02;98041.63;4147333;28;20635;-86
2022/04/13 09:37:45;;;;;;;7.30;4.90;;;;;;;24.30;56.80;98033.03;4147778;28;20650;-86
2022/04/13 09:39:49;;;;;;;6.67;4.40;;;;;;;24.48;56.69;98037.97;4155613;28;20629;-85
2022/04/13 09:41:54;;;;;;;6.90;4.23;;;;;;;24.57;54.55;98032.31;4134794;28;21027;-86
2022/04/13 09:43:57;;;;;;;6.57;4.10;;;;;;;24.63;54.99;98029.69;4141701;28;20638;-86